Terminal Aerodrome Forecast
Issued by NWS

Home | Current Version | Previous Version | Text Only | Print | Product List | Glossary On
Versions: 1 2 3 4 5 6 7 8 9 10 11 12 13 14 15 16 17 18 19 20 21 22 23 24 25 26 27 28 29 30 31 32 33 34 35 36 37 38 39 40 41 42 43 44 45 46 47 48 49 50
000
FTUS43 KMKX 020059 AAA
TAFENW
TAF AMD
KENW 020059Z 0201/0224 19013KT P6SM FEW250 WS020/20045KT
     FM021100 19011G19KT P6SM -SHRA BKN090 WS020/20045KT
      TEMPO 0211/0215 5SM -TSRA BKN015CB
     FM021500 25012G20KT 3SM SHRA OVC010
      TEMPO 0215/0217 -TSRA OVC010CB
     FM021900 29013KT P6SM BKN060
     FM022200 30009KT P6SM SCT250=

USA.gov is the U.S. government's official web portal to all federal, state and local government web resources and services.